createdAt,value
2018-07-28T00:00:32.674Z,27.50
2018-07-28T00:04:26.933Z,27.50
2018-07-28T00:08:20.965Z,27.40
2018-07-28T00:12:15.620Z,27.30
2018-07-28T00:16:09.743Z,27.40
2018-07-28T00:20:04.115Z,27.30
2018-07-28T00:23:58.279Z,27.30
2018-07-28T00:27:53.991Z,27.20
2018-07-28T00:31:48.194Z,27.10
2018-07-28T00:35:42.970Z,27.00
2018-07-28T00:39:37.034Z,27.10
2018-07-28T00:43:31.197Z,27.10
2018-07-28T00:47:26.387Z,27.10
2018-07-28T00:51:20.598Z,27.10
2018-07-28T00:55:14.773Z,27.20
2018-07-28T00:59:10.153Z,27.20
2018-07-28T01:03:06.718Z,27.20
2018-07-28T01:07:01.128Z,27.10
2018-07-28T01:10:55.421Z,27.10
2018-07-28T01:14:49.883Z,27.10
2018-07-28T01:18:44.721Z,27.10
2018-07-28T01:22:39.355Z,27.10
2018-07-28T01:30:30.140Z,26.90
2018-07-28T01:34:27.385Z,26.70
2018-07-28T01:38:21.537Z,26.60
2018-07-28T01:42:15.998Z,26.60
2018-07-28T01:46:10.041Z,26.50
2018-07-28T01:50:05.312Z,26.50
2018-07-28T01:53:59.344Z,26.40
2018-07-28T01:57:54.379Z,26.30
2018-07-28T02:01:48.375Z,26.10
2018-07-28T02:05:42.530Z,26.20
2018-07-28T02:13:44.906Z,26.00
2018-07-28T02:17:38.793Z,25.90
2018-07-28T02:21:32.911Z,25.80
2018-07-28T02:25:26.881Z,25.70
2018-07-28T02:29:21.021Z,25.60
2018-07-28T02:33:14.453Z,25.50
2018-07-28T02:37:08.489Z,25.40
2018-07-28T02:41:02.628Z,25.50
2018-07-28T02:44:56.798Z,25.50
2018-07-28T02:48:50.842Z,25.50
2018-07-28T02:52:44.823Z,25.60
2018-07-28T02:56:38.808Z,25.60
2018-07-28T03:00:32.772Z,25.70
2018-07-28T03:04:26.879Z,25.70
2018-07-28T03:08:20.833Z,25.70
2018-07-28T03:12:14.866Z,25.60
2018-07-28T03:16:13.608Z,25.70
2018-07-28T03:20:07.591Z,25.80
2018-07-28T03:24:01.580Z,25.60
2018-07-28T03:27:55.742Z,25.50
2018-07-28T03:31:49.810Z,25.30
2018-07-28T03:35:43.364Z,25.10
2018-07-28T03:39:37.329Z,25.00
2018-07-28T03:43:31.359Z,24.90
2018-07-28T03:47:25.356Z,24.90
2018-07-28T03:51:19.360Z,24.80
2018-07-28T03:59:36.183Z,24.60
2018-07-28T04:03:30.139Z,24.50
2018-07-28T04:07:24.177Z,24.50
2018-07-28T04:11:18.166Z,24.40
2018-07-28T04:15:13.260Z,24.40
2018-07-28T04:19:07.317Z,24.30
2018-07-28T04:23:01.427Z,24.40
2018-07-28T04:26:55.600Z,24.30
2018-07-28T04:30:49.605Z,24.20
2018-07-28T04:34:43.051Z,24.30
2018-07-28T04:38:37.129Z,24.20
2018-07-28T04:42:31.114Z,24.20
2018-07-28T04:46:25.170Z,24.20
2018-07-28T04:50:19.159Z,24.20
2018-07-28T04:54:13.102Z,24.40
2018-07-28T04:58:07.499Z,25.20
2018-07-28T05:02:01.641Z,26.60
2018-07-28T05:05:55.779Z,27.50
2018-07-28T05:09:49.775Z,27.60
2018-07-28T05:13:43.836Z,26.80
2018-07-28T05:17:38.059Z,26.20
2018-07-28T05:21:32.157Z,25.90
2018-07-28T05:25:26.215Z,25.70
2018-07-28T05:29:20.296Z,25.70
2018-07-28T05:33:13.830Z,25.70
2018-07-28T05:37:07.794Z,25.70
2018-07-28T05:41:02.380Z,25.70
2018-07-28T05:44:56.455Z,25.70
2018-07-28T05:48:50.438Z,25.60
2018-07-28T05:52:44.629Z,25.70
2018-07-28T05:56:38.846Z,25.90
2018-07-28T06:00:33.620Z,26.20
2018-07-28T06:04:27.693Z,26.40
2018-07-28T06:12:15.691Z,26.10
2018-07-28T06:16:09.661Z,25.90
2018-07-28T06:20:04.210Z,25.70
2018-07-28T06:23:58.440Z,25.50
2018-07-28T06:27:52.411Z,25.40
2018-07-28T06:31:46.626Z,25.40
2018-07-28T06:35:40.044Z,25.40
2018-07-28T06:39:34.091Z,25.50
2018-07-28T06:43:28.314Z,25.70
2018-07-28T06:47:22.547Z,25.60
2018-07-28T06:51:16.594Z,25.50
2018-07-28T06:55:10.591Z,25.50
2018-07-28T06:59:04.730Z,25.50
2018-07-28T07:02:58.771Z,25.40
2018-07-28T07:06:52.811Z,25.40
2018-07-28T07:10:47.525Z,25.20
2018-07-28T07:14:41.480Z,24.80
2018-07-28T07:18:35.513Z,24.00
2018-07-28T07:22:29.932Z,23.60
2018-07-28T07:26:24.527Z,23.20
2018-07-28T07:30:18.950Z,23.10
2018-07-28T07:34:14.595Z,23.20
2018-07-28T07:38:09.619Z,23.60
2018-07-28T07:42:30.039Z,24.10
2018-07-28T07:46:27.477Z,24.70
2018-07-28T07:54:15.335Z,26.00
2018-07-28T07:58:16.583Z,26.40
2018-07-28T08:02:12.609Z,26.60
2018-07-28T08:06:07.853Z,27.00
2018-07-28T08:10:05.765Z,27.00
2018-07-28T08:14:00.940Z,26.80
2018-07-28T08:17:55.623Z,26.50
2018-07-28T08:21:50.565Z,26.30
2018-07-28T08:25:47.228Z,26.00
2018-07-28T08:29:42.457Z,26.00
2018-07-28T08:33:36.963Z,26.00
2018-07-28T08:37:40.604Z,26.40
2018-07-28T08:41:52.765Z,26.80
2018-07-28T08:45:47.377Z,27.20
2018-07-28T08:49:42.492Z,27.40
2018-07-28T08:53:37.043Z,27.40
2018-07-28T08:57:31.218Z,27.30
2018-07-28T09:01:26.058Z,27.30
2018-07-28T09:05:20.256Z,27.20
2018-07-28T09:09:14.502Z,27.20
2018-07-28T09:13:09.024Z,27.20
2018-07-28T09:17:03.083Z,27.00
2018-07-28T09:20:57.158Z,26.80
2018-07-28T09:24:51.214Z,26.70
2018-07-28T09:28:45.361Z,26.60
2018-07-28T09:32:39.522Z,26.60
2018-07-28T09:36:33.625Z,26.60
2018-07-28T09:40:27.251Z,26.60
2018-07-28T09:44:21.403Z,26.50
2018-07-28T09:48:15.817Z,26.70
2018-07-28T09:52:09.909Z,27.10
2018-07-28T09:56:04.188Z,27.40
2018-07-28T09:59:58.597Z,27.80
2018-07-28T10:08:05.289Z,28.30
2018-07-28T10:11:59.511Z,28.20
2018-07-28T10:15:53.664Z,28.20
2018-07-28T10:20:01.364Z,28.40
2018-07-28T10:23:57.741Z,28.70
2018-07-28T10:31:57.779Z,28.50
2018-07-28T10:35:51.668Z,28.40
2018-07-28T10:39:45.687Z,28.40
2018-07-28T10:43:39.677Z,28.30
2018-07-28T10:47:34.782Z,28.10
2018-07-28T10:51:29.588Z,28.20
2018-07-28T10:55:23.938Z,28.30
2018-07-28T10:59:18.366Z,28.30
2018-07-28T11:03:13.050Z,28.30
2018-07-28T11:07:08.223Z,28.30
2018-07-28T11:11:02.817Z,28.30
2018-07-28T11:15:05.077Z,28.70
2018-07-28T11:18:59.974Z,29.00
2018-07-28T11:22:54.153Z,29.20
2018-07-28T11:26:48.455Z,29.20
2018-07-28T11:30:43.030Z,28.90
2018-07-28T11:35:44.819Z,28.50
2018-07-28T11:39:50.240Z,28.40
2018-07-28T11:43:55.884Z,28.60
2018-07-28T11:47:51.265Z,28.60
2018-07-28T11:51:46.252Z,28.70
2018-07-28T11:55:40.687Z,28.70
2018-07-28T11:59:35.269Z,28.80
2018-07-28T12:03:34.973Z,28.80
2018-07-28T12:07:29.373Z,28.90
2018-07-28T12:15:17.594Z,29.60
2018-07-28T12:19:11.637Z,29.60
2018-07-28T12:23:05.739Z,29.80
2018-07-28T12:26:59.999Z,29.90
2018-07-28T12:30:54.320Z,29.90
2018-07-28T12:34:47.904Z,29.90
2018-07-28T12:38:41.943Z,29.80
2018-07-28T12:42:36.165Z,29.60
2018-07-28T12:46:30.668Z,29.60
2018-07-28T12:50:24.985Z,29.70
2018-07-28T12:54:20.249Z,29.80
2018-07-28T12:58:14.645Z,29.70
2018-07-28T13:02:08.810Z,29.70
2018-07-28T13:09:56.661Z,29.80
2018-07-28T13:13:51.859Z,30.10
2018-07-28T13:17:46.074Z,30.20
2018-07-28T13:21:40.833Z,30.20
2018-07-28T13:25:35.193Z,29.90
2018-07-28T13:29:29.218Z,29.90
2018-07-28T13:33:23.287Z,30.00
2018-07-28T13:37:16.965Z,30.30
2018-07-28T13:41:10.948Z,30.50
2018-07-28T13:45:05.380Z,30.70
2018-07-28T13:48:59.447Z,30.80
2018-07-28T13:52:53.772Z,30.60
2018-07-28T13:56:48.170Z,30.50
2018-07-28T14:00:42.361Z,30.60
2018-07-28T14:04:36.437Z,31.00
2018-07-28T14:08:30.716Z,31.10
2018-07-28T14:12:24.851Z,30.90
2018-07-28T14:16:18.889Z,30.80
2018-07-28T14:20:13.257Z,31.00
2018-07-28T14:24:07.567Z,31.10
2018-07-28T14:28:01.639Z,31.10
2018-07-28T14:31:55.870Z,31.20
2018-07-28T14:35:50.319Z,31.10
2018-07-28T14:39:43.136Z,30.80
2018-07-28T14:43:37.311Z,30.60
2018-07-28T14:47:31.759Z,30.60
2018-07-28T14:51:26.054Z,30.70
2018-07-28T14:55:20.473Z,30.80
2018-07-28T14:59:14.742Z,30.90
2018-07-28T15:03:08.926Z,30.70
2018-07-28T15:07:03.143Z,30.50
2018-07-28T15:10:57.321Z,30.60
2018-07-28T15:14:51.463Z,30.60
2018-07-28T15:18:45.557Z,30.50
2018-07-28T15:22:39.722Z,30.50
2018-07-28T15:26:33.819Z,30.60
2018-07-28T15:30:27.858Z,30.80
2018-07-28T15:34:21.422Z,30.80
2018-07-28T15:38:15.463Z,30.50
2018-07-28T15:42:09.538Z,30.30
2018-07-28T15:49:57.842Z,29.80
2018-07-28T15:53:51.915Z,29.70
2018-07-28T15:57:45.895Z,29.80
2018-07-28T16:01:40.095Z,30.10
2018-07-28T16:05:34.097Z,30.30
2018-07-28T16:09:28.247Z,30.30
2018-07-28T16:13:22.552Z,30.20
2018-07-28T16:17:16.634Z,29.90
2018-07-28T16:21:10.800Z,29.70
2018-07-28T16:25:05.018Z,29.50
2018-07-28T16:28:58.970Z,28.90
2018-07-28T16:32:53.528Z,28.70
2018-07-28T16:36:46.999Z,28.40
2018-07-28T16:40:41.004Z,28.20
2018-07-28T16:44:35.278Z,28.00
2018-07-28T16:48:29.458Z,27.50
2018-07-28T16:56:17.090Z,27.20
2018-07-28T17:00:11.193Z,27.00
2018-07-28T17:07:59.317Z,27.00
2018-07-28T17:11:53.422Z,27.00
2018-07-28T17:15:47.376Z,27.00
2018-07-28T17:19:41.444Z,26.90
2018-07-28T17:23:36.241Z,26.70
2018-07-28T17:27:30.561Z,26.70
2018-07-28T17:31:24.572Z,26.80
2018-07-28T17:35:18.558Z,26.90
2018-07-28T17:39:12.192Z,26.90
2018-07-28T17:43:06.183Z,27.00
2018-07-28T17:47:00.228Z,27.20
2018-07-28T17:50:55.442Z,27.40
2018-07-28T17:54:49.710Z,27.50
2018-07-28T17:58:45.535Z,27.50
2018-07-28T18:02:52.240Z,27.60
2018-07-28T18:06:47.197Z,27.50
2018-07-28T18:10:41.711Z,27.30
2018-07-28T18:14:36.632Z,27.10
2018-07-28T18:18:31.642Z,26.90
2018-07-28T18:22:27.953Z,26.80
2018-07-28T18:26:22.371Z,26.60
2018-07-28T18:30:18.351Z,26.40
2018-07-28T18:34:12.812Z,26.30
2018-07-28T18:38:07.492Z,25.90
2018-07-28T18:42:02.908Z,25.40
2018-07-28T18:45:57.337Z,25.20
2018-07-28T18:49:53.168Z,25.10
2018-07-28T18:53:48.689Z,24.90
2018-07-28T18:57:43.358Z,24.90
2018-07-28T19:01:40.290Z,24.80
2018-07-28T19:05:35.848Z,24.70
2018-07-28T19:09:35.214Z,24.60
2018-07-28T19:13:35.494Z,24.60
2018-07-28T19:17:35.411Z,24.50
2018-07-28T19:25:23.594Z,24.20
2018-07-28T19:29:22.858Z,24.10
2018-07-28T19:33:17.026Z,24.10
2018-07-28T19:37:18.445Z,24.10
2018-07-28T19:45:05.776Z,24.00
2018-07-28T19:48:59.962Z,23.90
2018-07-28T19:52:54.191Z,23.80
2018-07-28T20:00:42.162Z,23.60
2018-07-28T20:04:36.183Z,23.50
2018-07-28T20:08:30.303Z,23.30
2018-07-28T20:12:25.051Z,23.30
2018-07-28T20:16:19.094Z,23.20
2018-07-28T20:20:13.719Z,23.20
2018-07-28T20:24:08.417Z,23.20
2018-07-28T20:28:02.573Z,23.10
2018-07-28T20:31:56.937Z,23.00
2018-07-28T20:35:51.198Z,23.00
2018-07-28T20:39:45.649Z,23.00
2018-07-28T20:43:39.666Z,23.00
2018-07-28T20:47:34.041Z,22.90
2018-07-28T20:51:28.189Z,22.70
2018-07-28T20:55:22.281Z,22.60
2018-07-28T20:59:16.621Z,22.60
2018-07-28T21:03:10.679Z,22.40
2018-07-28T21:07:04.866Z,22.30
2018-07-28T21:10:59.078Z,22.20
2018-07-28T21:14:53.739Z,22.20
2018-07-28T21:18:48.977Z,22.10
2018-07-28T21:22:43.063Z,22.00
2018-07-28T21:26:37.741Z,22.00
2018-07-28T21:30:32.089Z,21.90
2018-07-28T21:34:26.994Z,21.80
2018-07-28T21:38:21.200Z,21.80
2018-07-28T21:42:15.473Z,21.80
2018-07-28T21:46:09.435Z,21.80
2018-07-28T21:50:03.419Z,21.70
2018-07-28T21:53:57.579Z,21.60
2018-07-28T21:57:51.651Z,21.50
2018-07-28T22:01:47.574Z,21.50
2018-07-28T22:05:41.727Z,21.40
2018-07-28T22:09:36.774Z,21.30
2018-07-28T22:13:31.008Z,21.30
2018-07-28T22:21:18.790Z,21.20
2018-07-28T22:25:12.809Z,21.30
2018-07-28T22:29:07.553Z,21.30
2018-07-28T22:33:01.531Z,21.20
2018-07-28T22:36:55.876Z,21.20
2018-07-28T22:40:50.333Z,21.10
2018-07-28T22:44:44.480Z,21.20
2018-07-28T22:48:37.940Z,21.20
2018-07-28T22:52:31.889Z,21.10
2018-07-28T22:56:26.725Z,21.10
2018-07-28T23:00:21.006Z,21.10
2018-07-28T23:04:15.010Z,21.20
2018-07-28T23:08:09.151Z,21.00
2018-07-28T23:12:03.109Z,20.90
2018-07-28T23:15:57.123Z,20.90
2018-07-28T23:19:51.329Z,20.80
2018-07-28T23:23:45.516Z,20.70
2018-07-28T23:27:39.566Z,20.70
2018-07-28T23:31:33.665Z,20.70
2018-07-28T23:35:27.109Z,20.60
2018-07-28T23:39:21.304Z,20.60
2018-07-28T23:43:15.455Z,20.60
2018-07-28T23:47:09.456Z,20.60
2018-07-28T23:51:03.790Z,20.50
2018-07-28T23:54:57.785Z,20.50
2018-07-28T23:58:52.083Z,20.50
